sensor_id;sensor_type;location;lat;lon;timestamp;pressure;altitude;pressure_sealevel;temperature;humidity
80414;BME280;69758;52.580;13.068;2023-11-21T00:00:40;100638.32;;;13.96;38.50
80414;BME280;69758;52.580;13.068;2023-11-21T00:03:05;100639.39;;;13.94;38.57
80414;BME280;69758;52.580;13.068;2023-11-21T00:05:30;100643.19;;;13.71;38.75
80414;BME280;69758;52.580;13.068;2023-11-21T00:07:55;100646.27;;;13.78;38.72
80414;BME280;69758;52.580;13.068;2023-11-21T00:10:20;100648.89;;;13.66;38.80
80414;BME280;69758;52.580;13.068;2023-11-21T00:12:46;100650.72;;;14.11;39.06
80414;BME280;69758;52.580;13.068;2023-11-21T00:15:12;100652.63;;;13.08;39.25
80414;BME280;69758;52.580;13.068;2023-11-21T00:17:37;100654.65;;;13.57;39.26
80414;BME280;69758;52.580;13.068;2023-11-21T00:20:03;100660.28;;;13.05;39.34
80414;BME280;69758;52.580;13.068;2023-11-21T00:22:28;100661.37;;;12.81;39.83
80414;BME280;69758;52.580;13.068;2023-11-21T00:24:53;100663.74;;;12.86;39.87
80414;BME280;69758;52.580;13.068;2023-11-21T00:27:18;100670.08;;;12.92;39.71
80414;BME280;69758;52.580;13.068;2023-11-21T00:29:43;100675.78;;;13.26;39.54
80414;BME280;69758;52.580;13.068;2023-11-21T00:32:09;100675.42;;;12.58;39.57
80414;BME280;69758;52.580;13.068;2023-11-21T00:34:34;100676.25;;;13.46;39.12
80414;BME280;69758;52.580;13.068;2023-11-21T00:36:59;100679.08;;;12.93;39.40
80414;BME280;69758;52.580;13.068;2023-11-21T00:39:25;100678.09;;;13.23;39.44
80414;BME280;69758;52.580;13.068;2023-11-21T00:41:51;100683.44;;;13.29;39.09
80414;BME280;69758;52.580;13.068;2023-11-21T00:44:15;100686.77;;;13.11;38.90
80414;BME280;69758;52.580;13.068;2023-11-21T00:46:40;100684.96;;;13.55;38.61
80414;BME280;69758;52.580;13.068;2023-11-21T00:49:06;100686.98;;;13.14;38.40
80414;BME280;69758;52.580;13.068;2023-11-21T00:51:31;100688.43;;;13.39;38.30
80414;BME280;69758;52.580;13.068;2023-11-21T00:53:57;100688.08;;;12.96;38.52
80414;BME280;69758;52.580;13.068;2023-11-21T00:56:22;100693.93;;;12.99;38.51
80414;BME280;69758;52.580;13.068;2023-11-21T00:58:47;100696.31;;;13.35;38.45
80414;BME280;69758;52.580;13.068;2023-11-21T01:01:12;100698.21;;;13.25;38.34
80414;BME280;69758;52.580;13.068;2023-11-21T01:03:38;100700.01;;;13.28;38.18
80414;BME280;69758;52.580;13.068;2023-11-21T01:06:04;100704.16;;;13.42;38.08
80414;BME280;69758;52.580;13.068;2023-11-21T01:08:29;100706.99;;;13.46;38.02
80414;BME280;69758;52.580;13.068;2023-11-21T01:10:54;100712.06;;;12.56;38.76
80414;BME280;69758;52.580;13.068;2023-11-21T01:13:19;100712.70;;;12.88;38.83
80414;BME280;69758;52.580;13.068;2023-11-21T01:15:45;100717.74;;;12.83;38.62
80414;BME280;69758;52.580;13.068;2023-11-21T01:18:10;100720.64;;;13.06;38.26
80414;BME280;69758;52.580;13.068;2023-11-21T01:20:35;100726.06;;;12.61;38.61
80414;BME280;69758;52.580;13.068;2023-11-21T01:23:00;100729.55;;;12.63;38.79
80414;BME280;69758;52.580;13.068;2023-11-21T01:25:26;100730.21;;;12.91;38.74
80414;BME280;69758;52.580;13.068;2023-11-21T01:27:51;100737.24;;;11.99;39.10
80414;BME280;69758;52.580;13.068;2023-11-21T01:30:18;100738.77;;;12.29;39.30
80414;BME280;69758;52.580;13.068;2023-11-21T01:32:42;100736.46;;;12.18;39.57
80414;BME280;69758;52.580;13.068;2023-11-21T01:35:08;100737.94;;;12.21;39.48
80414;BME280;69758;52.580;13.068;2023-11-21T01:37:33;100738.31;;;12.43;39.36
80414;BME280;69758;52.580;13.068;2023-11-21T01:39:58;100741.86;;;12.30;39.31
80414;BME280;69758;52.580;13.068;2023-11-21T01:42:23;100744.14;;;12.08;39.45
80414;BME280;69758;52.580;13.068;2023-11-21T01:44:49;100747.90;;;12.15;39.58
80414;BME280;69758;52.580;13.068;2023-11-21T01:47:14;100748.27;;;12.27;39.34
80414;BME280;69758;52.580;13.068;2023-11-21T01:49:40;100754.34;;;12.31;39.21
80414;BME280;69758;52.580;13.068;2023-11-21T01:52:06;100759.62;;;12.04;39.20
80414;BME280;69758;52.580;13.068;2023-11-21T01:54:30;100762.26;;;12.17;39.09
80414;BME280;69758;52.580;13.068;2023-11-21T01:56:56;100763.62;;;12.59;38.93
80414;BME280;69758;52.580;13.068;2023-11-21T01:59:21;100766.17;;;12.30;38.60
80414;BME280;69758;52.580;13.068;2023-11-21T02:01:46;100766.29;;;11.88;39.37
80414;BME280;69758;52.580;13.068;2023-11-21T02:04:11;100769.90;;;12.10;39.23
80414;BME280;69758;52.580;13.068;2023-11-21T02:06:36;100769.24;;;12.12;38.93
80414;BME280;69758;52.580;13.068;2023-11-21T02:09:01;100769.92;;;12.28;38.76
80414;BME280;69758;52.580;13.068;2023-11-21T02:11:27;100773.74;;;11.96;38.96
80414;BME280;69758;52.580;13.068;2023-11-21T02:13:52;100777.17;;;12.09;38.73
80414;BME280;69758;52.580;13.068;2023-11-21T02:16:18;100778.14;;;12.32;38.67
80414;BME280;69758;52.580;13.068;2023-11-21T02:18:43;100778.11;;;12.19;38.46
80414;BME280;69758;52.580;13.068;2023-11-21T02:21:08;100777.30;;;12.20;38.19
80414;BME280;69758;52.580;13.068;2023-11-21T02:23:33;100778.01;;;12.30;37.77
80414;BME280;69758;52.580;13.068;2023-11-21T02:25:59;100777.01;;;12.45;37.85
80414;BME280;69758;52.580;13.068;2023-11-21T02:28:24;100777.02;;;12.56;37.64
80414;BME280;69758;52.580;13.068;2023-11-21T02:30:49;100779.51;;;12.39;37.61
80414;BME280;69758;52.580;13.068;2023-11-21T02:33:14;100781.87;;;12.73;37.39
80414;BME280;69758;52.580;13.068;2023-11-21T02:35:39;100779.07;;;12.54;37.48
80414;BME280;69758;52.580;13.068;2023-11-21T02:38:05;100779.44;;;12.79;37.20
80414;BME280;69758;52.580;13.068;2023-11-21T02:40:31;100782.50;;;12.79;37.19
80414;BME280;69758;52.580;13.068;2023-11-21T02:42:55;100787.54;;;12.24;37.69
80414;BME280;69758;52.580;13.068;2023-11-21T02:45:21;100787.18;;;12.16;37.84
80414;BME280;69758;52.580;13.068;2023-11-21T02:47:46;100787.75;;;12.30;37.84
80414;BME280;69758;52.580;13.068;2023-11-21T02:50:12;100791.05;;;12.29;37.70
80414;BME280;69758;52.580;13.068;2023-11-21T02:52:37;100794.52;;;12.59;37.59
80414;BME280;69758;52.580;13.068;2023-11-21T02:55:03;100794.45;;;12.69;37.54
80414;BME280;69758;52.580;13.068;2023-11-21T02:57:28;100796.76;;;12.33;37.38
80414;BME280;69758;52.580;13.068;2023-11-21T02:59:53;100795.88;;;12.57;37.35
80414;BME280;69758;52.580;13.068;2023-11-21T03:02:18;100798.12;;;12.48;37.24
80414;BME280;69758;52.580;13.068;2023-11-21T03:04:44;100799.16;;;12.83;37.07
80414;BME280;69758;52.580;13.068;2023-11-21T03:07:09;100807.03;;;12.55;36.95
80414;BME280;69758;52.580;13.068;2023-11-21T03:09:34;100810.04;;;12.43;37.13
80414;BME280;69758;52.580;13.068;2023-11-21T03:12:00;100814.48;;;12.57;36.94
80414;BME280;69758;52.580;13.068;2023-11-21T03:14:25;100817.95;;;12.73;37.11
80414;BME280;69758;52.580;13.068;2023-11-21T03:16:50;100823.56;;;12.30;37.13
80414;BME280;69758;52.580;13.068;2023-11-21T03:19:15;100822.74;;;12.92;37.02
80414;BME280;69758;52.580;13.068;2023-11-21T03:21:41;100825.64;;;12.45;36.88
80414;BME280;69758;52.580;13.068;2023-11-21T03:24:06;100826.11;;;12.55;36.79
80414;BME280;69758;52.580;13.068;2023-11-21T03:26:31;100829.63;;;12.86;36.70
80414;BME280;69758;52.580;13.068;2023-11-21T03:28:57;100834.05;;;12.74;36.64
80414;BME280;69758;52.580;13.068;2023-11-21T03:31:22;100838.25;;;12.87;36.50
80414;BME280;69758;52.580;13.068;2023-11-21T03:33:47;100838.98;;;12.95;36.37
80414;BME280;69758;52.580;13.068;2023-11-21T03:36:12;100840.47;;;12.80;36.18
80414;BME280;69758;52.580;13.068;2023-11-21T03:38:37;100842.35;;;12.79;36.38
80414;BME280;69758;52.580;13.068;2023-11-21T03:41:03;100845.04;;;12.59;36.46
80414;BME280;69758;52.580;13.068;2023-11-21T03:43:28;100847.65;;;12.87;36.45
80414;BME280;69758;52.580;13.068;2023-11-21T03:45:53;100853.87;;;12.91;36.48
80414;BME280;69758;52.580;13.068;2023-11-21T03:48:18;100858.58;;;12.95;36.45
80414;BME280;69758;52.580;13.068;2023-11-21T03:50:44;100856.70;;;12.91;36.49
80414;BME280;69758;52.580;13.068;2023-11-21T03:53:09;100858.62;;;12.91;36.61
80414;BME280;69758;52.580;13.068;2023-11-21T03:55:35;100862.54;;;12.70;36.89
80414;BME280;69758;52.580;13.068;2023-11-21T03:58:00;100868.11;;;12.15;37.11
80414;BME280;69758;52.580;13.068;2023-11-21T04:00:26;100868.14;;;12.11;37.13
80414;BME280;69758;52.580;13.068;2023-11-21T04:02:51;100868.43;;;12.11;37.11
80414;BME280;69758;52.580;13.068;2023-11-21T04:05:16;100872.71;;;12.36;37.16
80414;BME280;69758;52.580;13.068;2023-11-21T04:07:41;100875.23;;;12.19;37.20
80414;BME280;69758;52.580;13.068;2023-11-21T04:10:08;100883.39;;;12.02;37.19
80414;BME280;69758;52.580;13.068;2023-11-21T04:12:32;100890.67;;;12.03;37.33
80414;BME280;69758;52.580;13.068;2023-11-21T04:14:58;100895.57;;;11.58;37.41
80414;BME280;69758;52.580;13.068;2023-11-21T04:17:24;100897.10;;;11.32;38.01
80414;BME280;69758;52.580;13.068;2023-11-21T04:19:49;100897.42;;;11.36;37.79
80414;BME280;69758;52.580;13.068;2023-11-21T04:22:14;100897.42;;;11.58;37.64
80414;BME280;69758;52.580;13.068;2023-11-21T04:24:40;100899.20;;;11.80;37.47
80414;BME280;69758;52.580;13.068;2023-11-21T04:27:06;100905.41;;;11.82;37.24
80414;BME280;69758;52.580;13.068;2023-11-21T04:29:31;100906.94;;;12.03;37.01
80414;BME280;69758;52.580;13.068;2023-11-21T04:31:56;100905.41;;;12.34;36.78
80414;BME280;69758;52.580;13.068;2023-11-21T04:34:21;100906.86;;;12.19;36.72
80414;BME280;69758;52.580;13.068;2023-11-21T04:36:47;100910.69;;;12.27;36.65
80414;BME280;69758;52.580;13.068;2023-11-21T04:39:13;100911.75;;;12.22;36.68
80414;BME280;69758;52.580;13.068;2023-11-21T04:41:38;100910.43;;;12.35;36.72
80414;BME280;69758;52.580;13.068;2023-11-21T04:44:04;100914.09;;;12.32;36.80
80414;BME280;69758;52.580;13.068;2023-11-21T04:46:29;100916.31;;;12.39;36.72
80414;BME280;69758;52.580;13.068;2023-11-21T04:48:54;100915.53;;;12.39;36.66
80414;BME280;69758;52.580;13.068;2023-11-21T04:51:20;100915.72;;;12.11;36.56
80414;BME280;69758;52.580;13.068;2023-11-21T04:53:45;100917.21;;;12.16;36.47
80414;BME280;69758;52.580;13.068;2023-11-21T04:56:10;100922.54;;;12.15;36.53
80414;BME280;69758;52.580;13.068;2023-11-21T04:58:36;100923.21;;;12.14;36.58
80414;BME280;69758;52.580;13.068;2023-11-21T05:01:01;100927.15;;;12.01;36.48
80414;BME280;69758;52.580;13.068;2023-11-21T05:03:27;100931.97;;;12.26;36.38
80414;BME280;69758;52.580;13.068;2023-11-21T05:05:53;100937.86;;;11.89;36.54
80414;BME280;69758;52.580;13.068;2023-11-21T05:08:18;100942.14;;;12.19;36.58
80414;BME280;69758;52.580;13.068;2023-11-21T05:10:43;100943.23;;;11.93;36.69
80414;BME280;69758;52.580;13.068;2023-11-21T05:13:09;100949.63;;;11.89;36.73
80414;BME280;69758;52.580;13.068;2023-11-21T05:15:34;100948.21;;;11.93;36.78
80414;BME280;69758;52.580;13.068;2023-11-21T05:18:00;100947.12;;;11.99;36.76
80414;BME280;69758;52.580;13.068;2023-11-21T05:20:25;100947.92;;;11.87;36.49
80414;BME280;69758;52.580;13.068;2023-11-21T05:22:51;100952.88;;;12.02;36.36
80414;BME280;69758;52.580;13.068;2023-11-21T05:25:16;100954.22;;;11.89;36.14
80414;BME280;69758;52.580;13.068;2023-11-21T05:27:42;100961.15;;;12.49;35.96
80414;BME280;69758;52.580;13.068;2023-11-21T05:30:08;100964.37;;;12.24;35.81
80414;BME280;69758;52.580;13.068;2023-11-21T05:32:32;100971.98;;;12.55;35.82
80414;BME280;69758;52.580;13.068;2023-11-21T05:34:58;100977.30;;;12.50;35.82
80414;BME280;69758;52.580;13.068;2023-11-21T05:37:23;100981.39;;;12.26;35.89
80414;BME280;69758;52.580;13.068;2023-11-21T05:39:50;100984.92;;;12.49;35.84
80414;BME280;69758;52.580;13.068;2023-11-21T05:42:15;100992.08;;;12.09;35.96
80414;BME280;69758;52.580;13.068;2023-11-21T05:44:41;100995.26;;;11.93;36.34
80414;BME280;69758;52.580;13.068;2023-11-21T05:47:06;100996.80;;;11.78;36.59
80414;BME280;69758;52.580;13.068;2023-11-21T05:49:31;100998.57;;;11.69;36.68
80414;BME280;69758;52.580;13.068;2023-11-21T05:51:57;100997.52;;;11.52;36.95
80414;BME280;69758;52.580;13.068;2023-11-21T05:54:22;101003.89;;;11.99;36.77
80414;BME280;69758;52.580;13.068;2023-11-21T05:56:47;101007.99;;;11.94;36.44
80414;BME280;69758;52.580;13.068;2023-11-21T05:59:13;101011.13;;;11.94;36.34
80414;BME280;69758;52.580;13.068;2023-11-21T06:01:38;101012.52;;;11.50;36.33
80414;BME280;69758;52.580;13.068;2023-11-21T06:04:05;101023.27;;;11.84;36.25
80414;BME280;69758;52.580;13.068;2023-11-21T06:06:29;101022.14;;;11.77;36.04
80414;BME280;69758;52.580;13.068;2023-11-21T06:08:54;101022.45;;;11.95;35.87
80414;BME280;69758;52.580;13.068;2023-11-21T06:11:20;101027.64;;;12.07;35.76
80414;BME280;69758;52.580;13.068;2023-11-21T06:13:45;101032.87;;;11.84;35.80
80414;BME280;69758;52.580;13.068;2023-11-21T06:16:10;101037.18;;;12.12;35.79
80414;BME280;69758;52.580;13.068;2023-11-21T06:18:36;101039.22;;;11.64;35.95
80414;BME280;69758;52.580;13.068;2023-11-21T06:21:01;101044.40;;;11.64;36.03
80414;BME280;69758;52.580;13.068;2023-11-21T06:23:26;101048.92;;;11.77;36.15
80414;BME280;69758;52.580;13.068;2023-11-21T06:25:52;101054.19;;;11.42;36.34
80414;BME280;69758;52.580;13.068;2023-11-21T06:28:18;101057.23;;;11.21;36.44
80414;BME280;69758;52.580;13.068;2023-11-21T06:30:43;101064.17;;;11.09;36.68
80414;BME280;69758;52.580;13.068;2023-11-21T06:33:09;101063.96;;;10.86;36.27
80414;BME280;69758;52.580;13.068;2023-11-21T06:35:34;101066.34;;;11.40;36.10
80414;BME280;69758;52.580;13.068;2023-11-21T06:38:00;101073.75;;;11.08;36.49
80414;BME280;69758;52.580;13.068;2023-11-21T06:40:25;101073.43;;;11.22;36.48
80414;BME280;69758;52.580;13.068;2023-11-21T06:42:50;101075.42;;;11.46;36.22
80414;BME280;69758;52.580;13.068;2023-11-21T06:45:17;101078.97;;;11.19;36.05
80414;BME280;69758;52.580;13.068;2023-11-21T06:47:41;101080.76;;;11.21;35.91
80414;BME280;69758;52.580;13.068;2023-11-21T06:50:07;101086.22;;;11.16;36.01
80414;BME280;69758;52.580;13.068;2023-11-21T06:52:32;101087.01;;;11.25;36.05
80414;BME280;69758;52.580;13.068;2023-11-21T06:54:57;101089.61;;;11.53;36.12
80414;BME280;69758;52.580;13.068;2023-11-21T06:57:33;101094.24;;;10.84;36.39
80414;BME280;69758;52.580;13.068;2023-11-21T06:59:48;101098.06;;;11.12;36.55
80414;BME280;69758;52.580;13.068;2023-11-21T07:02:13;101101.40;;;11.10;36.05
80414;BME280;69758;52.580;13.068;2023-11-21T07:04:38;101106.31;;;10.94;36.09
80414;BME280;69758;52.580;13.068;2023-11-21T07:07:04;101111.48;;;11.45;35.85
80414;BME280;69758;52.580;13.068;2023-11-21T07:09:29;101112.49;;;11.26;35.79
80414;BME280;69758;52.580;13.068;2023-11-21T07:11:54;101111.27;;;11.10;35.70
80414;BME280;69758;52.580;13.068;2023-11-21T07:14:19;101111.94;;;11.12;35.67
80414;BME280;69758;52.580;13.068;2023-11-21T07:16:45;101114.16;;;11.29;35.61
80414;BME280;69758;52.580;13.068;2023-11-21T07:19:10;101116.12;;;11.00;35.99
80414;BME280;69758;52.580;13.068;2023-11-21T07:21:36;101124.03;;;10.93;36.02
80414;BME280;69758;52.580;13.068;2023-11-21T07:24:01;101116.85;;;10.78;35.84
80414;BME280;69758;52.580;13.068;2023-11-21T07:26:26;101117.74;;;10.92;35.80
80414;BME280;69758;52.580;13.068;2023-11-21T07:28:52;101114.12;;;10.35;36.04
80414;BME280;69758;52.580;13.068;2023-11-21T07:31:17;101115.01;;;10.88;36.07
80414;BME280;69758;52.580;13.068;2023-11-21T07:33:43;101115.57;;;11.07;35.82
80414;BME280;69758;52.580;13.068;2023-11-21T07:36:08;101117.55;;;10.85;35.60
80414;BME280;69758;52.580;13.068;2023-11-21T07:38:34;101120.60;;;10.89;35.72
80414;BME280;69758;52.580;13.068;2023-11-21T07:40:59;101123.95;;;11.17;35.44
80414;BME280;69758;52.580;13.068;2023-11-21T07:43:25;101130.34;;;10.89;35.32
80414;BME280;69758;52.580;13.068;2023-11-21T07:45:50;101129.01;;;11.20;35.31
80414;BME280;69758;52.580;13.068;2023-11-21T07:48:15;101134.85;;;10.71;35.36
80414;BME280;69758;52.580;13.068;2023-11-21T07:50:41;101139.45;;;11.20;35.33
80414;BME280;69758;52.580;13.068;2023-11-21T07:53:06;101145.11;;;11.07;35.46
80414;BME280;69758;52.580;13.068;2023-11-21T07:55:32;101146.79;;;10.63;35.39
80414;BME280;69758;52.580;13.068;2023-11-21T07:57:57;101144.24;;;10.97;35.43
80414;BME280;69758;52.580;13.068;2023-11-21T08:00:22;101150.77;;;10.98;35.42
80414;BME280;69758;52.580;13.068;2023-11-21T08:02:48;101155.87;;;11.08;35.50
80414;BME280;69758;52.580;13.068;2023-11-21T08:05:13;101153.39;;;10.94;35.21
80414;BME280;69758;52.580;13.068;2023-11-21T08:07:39;101152.65;;;11.08;35.13
80414;BME280;69758;52.580;13.068;2023-11-21T08:10:06;101151.86;;;11.07;34.98
80414;BME280;69758;52.580;13.068;2023-11-21T08:12:30;101152.53;;;11.15;34.77
80414;BME280;69758;52.580;13.068;2023-11-21T08:14:55;101154.86;;;11.26;34.67
80414;BME280;69758;52.580;13.068;2023-11-21T08:17:20;101159.36;;;11.22;34.60
80414;BME280;69758;52.580;13.068;2023-11-21T08:19:46;101162.41;;;11.57;34.65
80414;BME280;69758;52.580;13.068;2023-11-21T08:22:11;101163.26;;;11.25;34.52
80414;BME280;69758;52.580;13.068;2023-11-21T08:24:37;101168.12;;;10.93;34.77
80414;BME280;69758;52.580;13.068;2023-11-21T08:27:03;101172.39;;;10.92;34.93
80414;BME280;69758;52.580;13.068;2023-11-21T08:29:28;101181.74;;;10.99;34.99
80414;BME280;69758;52.580;13.068;2023-11-21T08:31:53;101185.75;;;11.16;34.68
80414;BME280;69758;52.580;13.068;2023-11-21T08:34:18;101189.85;;;10.98;35.11
80414;BME280;69758;52.580;13.068;2023-11-21T08:36:44;101196.74;;;10.59;35.27
80414;BME280;69758;52.580;13.068;2023-11-21T08:39:09;101201.12;;;10.90;35.12
80414;BME280;69758;52.580;13.068;2023-11-21T08:41:34;101202.84;;;10.73;35.25
80414;BME280;69758;52.580;13.068;2023-11-21T08:44:00;101199.64;;;10.96;35.48
80414;BME280;69758;52.580;13.068;2023-11-21T08:46:26;101206.68;;;10.62;35.26
80414;BME280;69758;52.580;13.068;2023-11-21T08:48:51;101211.34;;;11.05;35.11
80414;BME280;69758;52.580;13.068;2023-11-21T08:51:16;101210.01;;;10.88;35.05
80414;BME280;69758;52.580;13.068;2023-11-21T08:53:41;101213.00;;;11.04;34.77
80414;BME280;69758;52.580;13.068;2023-11-21T08:56:08;101214.31;;;10.74;34.86
80414;BME280;69758;52.580;13.068;2023-11-21T08:58:32;101214.72;;;10.71;34.70
80414;BME280;69758;52.580;13.068;2023-11-21T09:00:58;101217.91;;;10.52;34.89
80414;BME280;69758;52.580;13.068;2023-11-21T09:03:23;101223.32;;;10.42;35.21
80414;BME280;69758;52.580;13.068;2023-11-21T09:05:48;101225.63;;;10.63;35.60
80414;BME280;69758;52.580;13.068;2023-11-21T09:08:14;101231.41;;;10.24;35.78
80414;BME280;69758;52.580;13.068;2023-11-21T09:10:39;101235.81;;;10.55;35.55
80414;BME280;69758;52.580;13.068;2023-11-21T09:13:05;101238.67;;;10.75;35.30
80414;BME280;69758;52.580;13.068;2023-11-21T09:15:30;101243.45;;;10.88;34.95
80414;BME280;69758;52.580;13.068;2023-11-21T09:17:56;101249.06;;;10.45;35.24
80414;BME280;69758;52.580;13.068;2023-11-21T09:20:21;101253.71;;;10.21;35.68
80414;BME280;69758;52.580;13.068;2023-11-21T09:22:47;101257.84;;;10.34;35.60
80414;BME280;69758;52.580;13.068;2023-11-21T09:25:12;101263.49;;;10.76;35.39
80414;BME280;69758;52.580;13.068;2023-11-21T09:27:37;101265.85;;;10.77;35.57
80414;BME280;69758;52.580;13.068;2023-11-21T09:30:03;101266.04;;;10.47;35.82
80414;BME280;69758;52.580;13.068;2023-11-21T09:32:28;101268.01;;;10.54;35.97
80414;BME280;69758;52.580;13.068;2023-11-21T09:34:53;101267.13;;;10.31;36.02
80414;BME280;69758;52.580;13.068;2023-11-21T09:37:19;101271.44;;;10.30;35.81
80414;BME280;69758;52.580;13.068;2023-11-21T09:39:44;101274.98;;;10.30;35.79
80414;BME280;69758;52.580;13.068;2023-11-21T09:42:13;101276.54;;;10.36;35.90
80414;BME280;69758;52.580;13.068;2023-11-21T09:44:46;101281.63;;;10.53;35.94
80414;BME280;69758;52.580;13.068;2023-11-21T09:47:01;101280.27;;;10.65;35.69
80414;BME280;69758;52.580;13.068;2023-11-21T09:49:26;101282.89;;;10.87;35.56
80414;BME280;69758;52.580;13.068;2023-11-21T09:51:54;101286.12;;;10.73;35.59
80414;BME280;69758;52.580;13.068;2023-11-21T09:54:17;101289.03;;;10.76;35.69
80414;BME280;69758;52.580;13.068;2023-11-21T09:56:43;101292.88;;;10.80;35.95
80414;BME280;69758;52.580;13.068;2023-11-21T09:59:08;101298.48;;;10.54;36.49
80414;BME280;69758;52.580;13.068;2023-11-21T10:01:33;101306.13;;;10.31;36.38
80414;BME280;69758;52.580;13.068;2023-11-21T10:03:58;101303.21;;;10.17;36.70
80414;BME280;69758;52.580;13.068;2023-11-21T10:06:24;101297.46;;;9.62;37.51
80414;BME280;69758;52.580;13.068;2023-11-21T10:08:49;101298.89;;;9.79;37.48
80414;BME280;69758;52.580;13.068;2023-11-21T10:11:14;101303.56;;;9.88;37.30
80414;BME280;69758;52.580;13.068;2023-11-21T10:13:40;101301.45;;;9.84;37.04
80414;BME280;69758;52.580;13.068;2023-11-21T10:16:11;101303.92;;;10.22;36.71
80414;BME280;69758;52.580;13.068;2023-11-21T10:18:30;101307.09;;;10.54;36.52
80414;BME280;69758;52.580;13.068;2023-11-21T10:20:56;101303.62;;;10.01;36.62
80414;BME280;69758;52.580;13.068;2023-11-21T10:23:21;101304.74;;;10.41;36.62
80414;BME280;69758;52.580;13.068;2023-11-21T10:25:46;101303.22;;;10.25;36.59
80414;BME280;69758;52.580;13.068;2023-11-21T10:28:12;101311.88;;;10.25;36.80
80414;BME280;69758;52.580;13.068;2023-11-21T10:30:38;101314.66;;;10.18;36.64
80414;BME280;69758;52.580;13.068;2023-11-21T10:33:03;101311.44;;;10.12;36.84
80414;BME280;69758;52.580;13.068;2023-11-21T10:35:38;101310.85;;;9.89;37.10
80414;BME280;69758;52.580;13.068;2023-11-21T10:37:59;101317.78;;;10.20;36.88
80414;BME280;69758;52.580;13.068;2023-11-21T10:40:20;101315.43;;;10.37;36.60
80414;BME280;69758;52.580;13.068;2023-11-21T10:42:44;101315.92;;;10.56;36.55
80414;BME280;69758;52.580;13.068;2023-11-21T10:45:10;101320.83;;;10.67;36.27
80414;BME280;69758;52.580;13.068;2023-11-21T10:47:34;101322.30;;;10.76;35.82
80414;BME280;69758;52.580;13.068;2023-11-21T10:50:05;101329.16;;;10.42;35.85
80414;BME280;69758;52.580;13.068;2023-11-21T10:52:27;101330.44;;;10.31;35.92
80414;BME280;69758;52.580;13.068;2023-11-21T10:54:51;101332.36;;;10.37;35.96
80414;BME280;69758;52.580;13.068;2023-11-21T10:57:18;101335.98;;;10.26;35.66
80414;BME280;69758;52.580;13.068;2023-11-21T10:59:46;101335.26;;;9.67;36.67
80414;BME280;69758;52.580;13.068;2023-11-21T11:02:14;101339.71;;;9.71;36.82
80414;BME280;69758;52.580;13.068;2023-11-21T11:04:34;101346.76;;;9.83;36.49
80414;BME280;69758;52.580;13.068;2023-11-21T11:07:02;101349.19;;;10.05;36.19
80414;BME280;69758;52.580;13.068;2023-11-21T11:09:23;101353.41;;;10.45;35.91
80414;BME280;69758;52.580;13.068;2023-11-21T11:11:48;101350.85;;;9.97;36.28
80414;BME280;69758;52.580;13.068;2023-11-21T11:14:14;101349.26;;;10.16;36.39
80414;BME280;69758;52.580;13.068;2023-11-21T11:16:40;101357.64;;;9.92;36.77
80414;BME280;69758;52.580;13.068;2023-11-21T11:19:04;101356.37;;;9.70;37.13
80414;BME280;69758;52.580;13.068;2023-11-21T11:21:39;101359.23;;;9.59;37.03
80414;BME280;69758;52.580;13.068;2023-11-21T11:24:07;101364.55;;;9.73;37.00
80414;BME280;69758;52.580;13.068;2023-11-21T11:26:28;101370.35;;;10.04;36.63
80414;BME280;69758;52.580;13.068;2023-11-21T11:28:57;101374.53;;;9.53;37.00
80414;BME280;69758;52.580;13.068;2023-11-21T11:33:41;101371.92;;;9.62;36.69
80414;BME280;69758;52.580;13.068;2023-11-21T11:36:06;101376.26;;;9.64;37.00
80414;BME280;69758;52.580;13.068;2023-11-21T11:38:31;101379.94;;;9.62;37.16
80414;BME280;69758;52.580;13.068;2023-11-21T11:40:54;101382.05;;;9.70;36.93
80414;BME280;69758;52.580;13.068;2023-11-21T11:43:25;101389.68;;;9.66;36.96
80414;BME280;69758;52.580;13.068;2023-11-21T11:45:44;101398.33;;;9.68;37.30
80414;BME280;69758;52.580;13.068;2023-11-21T11:48:11;101395.04;;;9.68;37.16
80414;BME280;69758;52.580;13.068;2023-11-21T11:50:35;101395.92;;;9.79;36.78
80414;BME280;69758;52.580;13.068;2023-11-21T11:55:26;101402.76;;;9.80;37.16
80414;BME280;69758;52.580;13.068;2023-11-21T11:57:53;101402.43;;;9.94;37.16
80414;BME280;69758;52.580;13.068;2023-11-21T12:00:19;101402.92;;;9.92;37.04
80414;BME280;69758;52.580;13.068;2023-11-21T12:02:44;101406.00;;;9.78;37.27
80414;BME280;69758;52.580;13.068;2023-11-21T12:05:10;101413.13;;;9.17;37.35
80414;BME280;69758;52.580;13.068;2023-11-21T12:07:41;101417.68;;;9.51;37.38
80414;BME280;69758;52.580;13.068;2023-11-21T12:09:59;101418.93;;;9.63;37.43
80414;BME280;69758;52.580;13.068;2023-11-21T12:12:26;101417.56;;;9.85;37.13
80414;BME280;69758;52.580;13.068;2023-11-21T12:14:49;101420.44;;;9.72;36.97
80414;BME280;69758;52.580;13.068;2023-11-21T12:17:15;101425.79;;;9.90;36.82
80414;BME280;69758;52.580;13.068;2023-11-21T12:19:40;101429.29;;;9.92;36.83
80414;BME280;69758;52.580;13.068;2023-11-21T12:22:06;101431.62;;;10.20;36.65
80414;BME280;69758;52.580;13.068;2023-11-21T12:24:31;101429.58;;;10.20;36.70
80414;BME280;69758;52.580;13.068;2023-11-21T12:26:56;101439.29;;;9.97;36.73
80414;BME280;69758;52.580;13.068;2023-11-21T12:29:22;101441.57;;;10.29;36.77
80414;BME280;69758;52.580;13.068;2023-11-21T12:31:49;101446.88;;;10.29;36.62
80414;BME280;69758;52.580;13.068;2023-11-21T12:34:13;101447.30;;;10.04;36.37